sensor_id;sensor_type;location;lat;lon;timestamp;P1;durP1;ratioP1;P2;durP2;ratioP2
68192;SDS011;55012;47.562;18.414;2023-03-23T00:01:53;15.02;;;4.65;;
68192;SDS011;55012;47.562;18.414;2023-03-23T00:04:19;12.43;;;4.20;;
68192;SDS011;55012;47.562;18.414;2023-03-23T00:06:45;14.18;;;4.45;;
68192;SDS011;55012;47.562;18.414;2023-03-23T00:09:12;9.65;;;4.20;;
68192;SDS011;55012;47.562;18.414;2023-03-23T00:11:40;9.40;;;4.40;;
68192;SDS011;55012;47.562;18.414;2023-03-23T00:14:06;11.32;;;4.57;;
68192;SDS011;55012;47.562;18.414;2023-03-23T00:16:38;7.68;;;4.05;;
68192;SDS011;55012;47.562;18.414;2023-03-23T00:19:09;8.20;;;4.10;;
68192;SDS011;55012;47.562;18.414;2023-03-23T00:21:38;8.13;;;4.22;;
68192;SDS011;55012;47.562;18.414;2023-03-23T00:24:05;7.30;;;4.65;;
68192;SDS011;55012;47.562;18.414;2023-03-23T00:26:33;8.65;;;4.22;;
68192;SDS011;55012;47.562;18.414;2023-03-23T00:29:01;9.18;;;4.35;;
68192;SDS011;55012;47.562;18.414;2023-03-23T00:31:28;9.07;;;4.60;;
68192;SDS011;55012;47.562;18.414;2023-03-23T00:34:00;10.50;;;4.55;;
68192;SDS011;55012;47.562;18.414;2023-03-23T00:36:30;8.30;;;4.50;;
68192;SDS011;55012;47.562;18.414;2023-03-23T00:38:57;9.52;;;4.45;;
68192;SDS011;55012;47.562;18.414;2023-03-23T00:41:26;9.98;;;4.45;;
68192;SDS011;55012;47.562;18.414;2023-03-23T00:43:56;10.20;;;5.03;;
68192;SDS011;55012;47.562;18.414;2023-03-23T00:46:23;9.48;;;4.75;;
68192;SDS011;55012;47.562;18.414;2023-03-23T00:48:49;7.85;;;4.63;;
68192;SDS011;55012;47.562;18.414;2023-03-23T00:51:19;11.18;;;5.38;;
68192;SDS011;55012;47.562;18.414;2023-03-23T00:53:45;10.55;;;4.68;;
68192;SDS011;55012;47.562;18.414;2023-03-23T00:56:11;8.13;;;4.75;;
68192;SDS011;55012;47.562;18.414;2023-03-23T00:58:37;7.60;;;4.55;;
68192;SDS011;55012;47.562;18.414;2023-03-23T01:01:03;9.75;;;4.63;;
68192;SDS011;55012;47.562;18.414;2023-03-23T01:03:29;12.52;;;4.82;;
68192;SDS011;55012;47.562;18.414;2023-03-23T01:05:55;11.27;;;5.05;;
68192;SDS011;55012;47.562;18.414;2023-03-23T01:08:21;15.98;;;4.85;;
68192;SDS011;55012;47.562;18.414;2023-03-23T01:10:48;11.88;;;5.00;;
68192;SDS011;55012;47.562;18.414;2023-03-23T01:13:14;11.93;;;4.65;;
68192;SDS011;55012;47.562;18.414;2023-03-23T01:15:40;13.13;;;4.78;;
68192;SDS011;55012;47.562;18.414;2023-03-23T01:18:07;13.23;;;5.22;;
68192;SDS011;55012;47.562;18.414;2023-03-23T01:20:32;12.07;;;5.18;;
68192;SDS011;55012;47.562;18.414;2023-03-23T01:23:00;11.32;;;5.28;;
68192;SDS011;55012;47.562;18.414;2023-03-23T01:25:29;9.55;;;5.50;;
68192;SDS011;55012;47.562;18.414;2023-03-23T01:27:57;10.05;;;5.70;;
68192;SDS011;55012;47.562;18.414;2023-03-23T01:30:23;11.02;;;5.78;;
68192;SDS011;55012;47.562;18.414;2023-03-23T01:32:50;10.30;;;5.40;;
68192;SDS011;55012;47.562;18.414;2023-03-23T01:35:16;9.60;;;5.28;;
68192;SDS011;55012;47.562;18.414;2023-03-23T01:37:42;7.53;;;4.90;;
68192;SDS011;55012;47.562;18.414;2023-03-23T01:40:08;9.13;;;5.30;;
68192;SDS011;55012;47.562;18.414;2023-03-23T01:42:35;12.05;;;5.38;;
68192;SDS011;55012;47.562;18.414;2023-03-23T01:48:26;12.30;;;5.80;;
68192;SDS011;55012;47.562;18.414;2023-03-23T01:53:57;13.32;;;5.93;;
68192;SDS011;55012;47.562;18.414;2023-03-23T01:56:28;10.48;;;5.05;;
68192;SDS011;55012;47.562;18.414;2023-03-23T01:59:10;11.05;;;5.80;;
68192;SDS011;55012;47.562;18.414;2023-03-23T02:01:36;11.77;;;5.68;;
68192;SDS011;55012;47.562;18.414;2023-03-23T02:04:08;13.35;;;5.68;;
68192;SDS011;55012;47.562;18.414;2023-03-23T02:06:34;10.80;;;6.20;;
68192;SDS011;55012;47.562;18.414;2023-03-23T02:08:59;12.98;;;5.90;;
68192;SDS011;55012;47.562;18.414;2023-03-23T02:11:26;10.88;;;5.28;;
68192;SDS011;55012;47.562;18.414;2023-03-23T02:13:51;11.02;;;5.65;;
68192;SDS011;55012;47.562;18.414;2023-03-23T02:16:25;9.30;;;5.35;;
68192;SDS011;55012;47.562;18.414;2023-03-23T02:25:09;20.02;;;6.00;;
68192;SDS011;55012;47.562;18.414;2023-03-23T02:33:40;14.50;;;6.13;;
68192;SDS011;55012;47.562;18.414;2023-03-23T02:38:56;12.48;;;5.78;;
68192;SDS011;55012;47.562;18.414;2023-03-23T02:41:30;12.15;;;5.90;;
68192;SDS011;55012;47.562;18.414;2023-03-23T02:44:01;8.60;;;5.38;;
68192;SDS011;55012;47.562;18.414;2023-03-23T02:46:28;12.93;;;5.93;;
68192;SDS011;55012;47.562;18.414;2023-03-23T02:48:55;13.07;;;6.05;;
68192;SDS011;55012;47.562;18.414;2023-03-23T02:51:23;15.27;;;5.95;;
68192;SDS011;55012;47.562;18.414;2023-03-23T02:53:50;16.48;;;6.68;;
68192;SDS011;55012;47.562;18.414;2023-03-23T02:56:18;19.17;;;6.60;;
68192;SDS011;55012;47.562;18.414;2023-03-23T02:58:45;12.57;;;6.32;;
68192;SDS011;55012;47.562;18.414;2023-03-23T03:03:53;13.70;;;6.80;;
68192;SDS011;55012;47.562;18.414;2023-03-23T03:09:10;12.88;;;6.38;;
68192;SDS011;55012;47.562;18.414;2023-03-23T03:11:59;12.88;;;6.60;;
68192;SDS011;55012;47.562;18.414;2023-03-23T03:14:34;11.63;;;7.05;;
68192;SDS011;55012;47.562;18.414;2023-03-23T03:17:08;18.08;;;7.28;;
68192;SDS011;55012;47.562;18.414;2023-03-23T03:19:36;12.20;;;6.70;;
68192;SDS011;55012;47.562;18.414;2023-03-23T03:22:05;13.55;;;6.90;;
68192;SDS011;55012;47.562;18.414;2023-03-23T03:24:32;14.15;;;6.57;;
68192;SDS011;55012;47.562;18.414;2023-03-23T03:27:02;13.10;;;6.50;;
68192;SDS011;55012;47.562;18.414;2023-03-23T03:29:35;16.27;;;6.80;;
68192;SDS011;55012;47.562;18.414;2023-03-23T03:32:06;12.18;;;6.30;;
68192;SDS011;55012;47.562;18.414;2023-03-23T03:34:36;17.25;;;6.80;;
68192;SDS011;55012;47.562;18.414;2023-03-23T03:37:02;15.07;;;6.68;;
68192;SDS011;55012;47.562;18.414;2023-03-23T03:39:30;14.65;;;6.30;;
68192;SDS011;55012;47.562;18.414;2023-03-23T03:42:00;13.55;;;6.40;;
68192;SDS011;55012;47.562;18.414;2023-03-23T03:44:25;10.82;;;6.10;;
68192;SDS011;55012;47.562;18.414;2023-03-23T03:46:51;11.38;;;6.00;;
68192;SDS011;55012;47.562;18.414;2023-03-23T03:49:16;16.20;;;6.45;;
68192;SDS011;55012;47.562;18.414;2023-03-23T03:51:42;18.02;;;6.47;;
68192;SDS011;55012;47.562;18.414;2023-03-23T03:54:08;12.77;;;6.40;;
68192;SDS011;55012;47.562;18.414;2023-03-23T03:56:33;12.57;;;6.55;;
68192;SDS011;55012;47.562;18.414;2023-03-23T03:59:05;15.13;;;6.65;;
68192;SDS011;55012;47.562;18.414;2023-03-23T04:01:31;13.38;;;6.93;;
68192;SDS011;55012;47.562;18.414;2023-03-23T04:03:57;15.48;;;6.82;;
68192;SDS011;55012;47.562;18.414;2023-03-23T04:06:22;17.70;;;6.32;;
68192;SDS011;55012;47.562;18.414;2023-03-23T04:08:48;14.02;;;7.28;;
68192;SDS011;55012;47.562;18.414;2023-03-23T04:11:14;16.80;;;6.93;;
68192;SDS011;55012;47.562;18.414;2023-03-23T04:13:40;18.20;;;7.15;;
68192;SDS011;55012;47.562;18.414;2023-03-23T04:16:06;15.55;;;7.25;;
68192;SDS011;55012;47.562;18.414;2023-03-23T04:18:33;15.27;;;7.15;;
68192;SDS011;55012;47.562;18.414;2023-03-23T04:20:59;16.05;;;6.75;;
68192;SDS011;55012;47.562;18.414;2023-03-23T04:23:26;13.27;;;6.78;;
68192;SDS011;55012;47.562;18.414;2023-03-23T04:25:56;14.15;;;7.07;;
68192;SDS011;55012;47.562;18.414;2023-03-23T04:28:23;17.00;;;7.15;;
68192;SDS011;55012;47.562;18.414;2023-03-23T04:30:49;14.77;;;7.05;;
68192;SDS011;55012;47.562;18.414;2023-03-23T04:33:20;14.30;;;6.50;;
68192;SDS011;55012;47.562;18.414;2023-03-23T04:35:55;15.88;;;7.05;;
68192;SDS011;55012;47.562;18.414;2023-03-23T04:38:22;16.33;;;6.53;;
68192;SDS011;55012;47.562;18.414;2023-03-23T04:40:50;17.63;;;7.00;;
68192;SDS011;55012;47.562;18.414;2023-03-23T04:43:17;15.77;;;7.55;;
68192;SDS011;55012;47.562;18.414;2023-03-23T04:45:46;14.95;;;7.15;;
68192;SDS011;55012;47.562;18.414;2023-03-23T04:48:12;16.00;;;6.95;;
68192;SDS011;55012;47.562;18.414;2023-03-23T04:50:39;15.48;;;6.60;;
68192;SDS011;55012;47.562;18.414;2023-03-23T04:53:04;16.42;;;7.15;;
68192;SDS011;55012;47.562;18.414;2023-03-23T04:55:30;15.85;;;7.10;;
68192;SDS011;55012;47.562;18.414;2023-03-23T04:58:01;12.63;;;6.53;;
68192;SDS011;55012;47.562;18.414;2023-03-23T05:00:31;17.23;;;7.18;;
68192;SDS011;55012;47.562;18.414;2023-03-23T05:03:11;13.52;;;7.03;;
68192;SDS011;55012;47.562;18.414;2023-03-23T05:05:39;12.27;;;6.82;;
68192;SDS011;55012;47.562;18.414;2023-03-23T05:08:05;12.98;;;6.45;;
68192;SDS011;55012;47.562;18.414;2023-03-23T05:10:30;14.88;;;7.22;;
68192;SDS011;55012;47.562;18.414;2023-03-23T05:12:56;13.27;;;6.40;;
68192;SDS011;55012;47.562;18.414;2023-03-23T05:15:21;15.10;;;7.07;;
68192;SDS011;55012;47.562;18.414;2023-03-23T05:17:47;15.18;;;6.80;;
68192;SDS011;55012;47.562;18.414;2023-03-23T05:20:14;19.42;;;6.95;;
68192;SDS011;55012;47.562;18.414;2023-03-23T05:22:45;16.73;;;7.25;;
68192;SDS011;55012;47.562;18.414;2023-03-23T05:25:12;13.25;;;7.18;;
68192;SDS011;55012;47.562;18.414;2023-03-23T05:27:39;27.17;;;9.10;;
68192;SDS011;55012;47.562;18.414;2023-03-23T05:30:08;15.55;;;7.70;;
68192;SDS011;55012;47.562;18.414;2023-03-23T05:32:34;15.75;;;7.50;;
68192;SDS011;55012;47.562;18.414;2023-03-23T05:35:00;17.48;;;7.75;;
68192;SDS011;55012;47.562;18.414;2023-03-23T05:37:28;13.43;;;7.53;;
68192;SDS011;55012;47.562;18.414;2023-03-23T05:39:57;15.80;;;7.93;;
68192;SDS011;55012;47.562;18.414;2023-03-23T05:42:30;18.80;;;8.30;;
68192;SDS011;55012;47.562;18.414;2023-03-23T05:44:56;17.45;;;7.80;;
68192;SDS011;55012;47.562;18.414;2023-03-23T05:47:23;16.88;;;8.00;;
68192;SDS011;55012;47.562;18.414;2023-03-23T05:49:48;23.30;;;7.30;;
68192;SDS011;55012;47.562;18.414;2023-03-23T05:52:14;15.55;;;7.35;;
68192;SDS011;55012;47.562;18.414;2023-03-23T05:54:39;22.60;;;8.10;;
68192;SDS011;55012;47.562;18.414;2023-03-23T05:57:06;16.83;;;8.00;;
68192;SDS011;55012;47.562;18.414;2023-03-23T05:59:33;16.77;;;8.60;;
68192;SDS011;55012;47.562;18.414;2023-03-23T06:01:59;18.65;;;8.82;;
68192;SDS011;55012;47.562;18.414;2023-03-23T06:04:25;18.13;;;8.15;;
68192;SDS011;55012;47.562;18.414;2023-03-23T06:06:52;16.35;;;8.05;;
68192;SDS011;55012;47.562;18.414;2023-03-23T06:09:18;19.05;;;8.73;;
68192;SDS011;55012;47.562;18.414;2023-03-23T06:11:44;19.13;;;8.75;;
68192;SDS011;55012;47.562;18.414;2023-03-23T06:14:10;17.52;;;9.05;;
68192;SDS011;55012;47.562;18.414;2023-03-23T06:16:36;20.48;;;9.93;;
68192;SDS011;55012;47.562;18.414;2023-03-23T06:19:02;17.85;;;8.98;;
68192;SDS011;55012;47.562;18.414;2023-03-23T06:21:29;19.40;;;9.27;;
68192;SDS011;55012;47.562;18.414;2023-03-23T06:23:55;17.40;;;8.55;;
68192;SDS011;55012;47.562;18.414;2023-03-23T06:26:21;22.80;;;9.95;;
68192;SDS011;55012;47.562;18.414;2023-03-23T06:28:53;21.33;;;8.63;;
68192;SDS011;55012;47.562;18.414;2023-03-23T06:31:19;17.88;;;8.43;;
68192;SDS011;55012;47.562;18.414;2023-03-23T06:33:45;22.42;;;9.32;;
68192;SDS011;55012;47.562;18.414;2023-03-23T06:36:12;21.63;;;9.20;;
68192;SDS011;55012;47.562;18.414;2023-03-23T06:38:37;22.33;;;9.70;;
68192;SDS011;55012;47.562;18.414;2023-03-23T06:41:03;25.30;;;9.23;;
68192;SDS011;55012;47.562;18.414;2023-03-23T06:43:29;22.00;;;8.95;;
68192;SDS011;55012;47.562;18.414;2023-03-23T06:45:58;18.02;;;8.80;;
68192;SDS011;55012;47.562;18.414;2023-03-23T06:48:24;18.85;;;8.73;;
68192;SDS011;55012;47.562;18.414;2023-03-23T06:50:50;21.23;;;9.25;;
68192;SDS011;55012;47.562;18.414;2023-03-23T06:53:15;17.45;;;9.30;;
68192;SDS011;55012;47.562;18.414;2023-03-23T06:55:42;20.05;;;9.20;;
68192;SDS011;55012;47.562;18.414;2023-03-23T06:58:08;24.88;;;9.43;;
68192;SDS011;55012;47.562;18.414;2023-03-23T07:00:35;21.17;;;9.50;;
68192;SDS011;55012;47.562;18.414;2023-03-23T07:03:01;23.55;;;9.75;;
68192;SDS011;55012;47.562;18.414;2023-03-23T07:05:26;29.30;;;9.20;;
68192;SDS011;55012;47.562;18.414;2023-03-23T07:07:52;23.23;;;9.80;;
68192;SDS011;55012;47.562;18.414;2023-03-23T07:10:18;19.80;;;10.25;;
68192;SDS011;55012;47.562;18.414;2023-03-23T07:12:43;28.45;;;9.25;;
68192;SDS011;55012;47.562;18.414;2023-03-23T07:15:09;33.80;;;9.45;;
68192;SDS011;55012;47.562;18.414;2023-03-23T07:17:36;24.08;;;9.20;;
68192;SDS011;55012;47.562;18.414;2023-03-23T07:20:02;26.52;;;9.13;;
68192;SDS011;55012;47.562;18.414;2023-03-23T07:22:28;25.85;;;9.15;;
68192;SDS011;55012;47.562;18.414;2023-03-23T07:24:54;27.42;;;8.85;;
68192;SDS011;55012;47.562;18.414;2023-03-23T07:27:27;22.90;;;8.65;;
68192;SDS011;55012;47.562;18.414;2023-03-23T07:29:53;22.08;;;8.30;;
68192;SDS011;55012;47.562;18.414;2023-03-23T07:34:53;30.38;;;9.80;;
68192;SDS011;55012;47.562;18.414;2023-03-23T07:37:19;22.77;;;9.20;;
68192;SDS011;55012;47.562;18.414;2023-03-23T07:39:45;17.33;;;8.25;;
68192;SDS011;55012;47.562;18.414;2023-03-23T07:42:10;23.88;;;8.73;;
68192;SDS011;55012;47.562;18.414;2023-03-23T07:44:36;18.50;;;8.38;;
68192;SDS011;55012;47.562;18.414;2023-03-23T07:47:01;21.98;;;8.82;;
68192;SDS011;55012;47.562;18.414;2023-03-23T07:49:27;17.40;;;8.30;;
68192;SDS011;55012;47.562;18.414;2023-03-23T07:51:52;22.05;;;8.50;;
68192;SDS011;55012;47.562;18.414;2023-03-23T07:54:18;25.42;;;8.20;;
68192;SDS011;55012;47.562;18.414;2023-03-23T07:56:43;24.98;;;8.07;;
68192;SDS011;55012;47.562;18.414;2023-03-23T07:59:10;20.38;;;8.02;;
68192;SDS011;55012;47.562;18.414;2023-03-23T08:01:38;19.50;;;8.80;;
68192;SDS011;55012;47.562;18.414;2023-03-23T08:04:04;17.85;;;7.80;;
68192;SDS011;55012;47.562;18.414;2023-03-23T08:06:31;22.10;;;9.80;;
68192;SDS011;55012;47.562;18.414;2023-03-23T08:08:58;20.55;;;9.00;;
68192;SDS011;55012;47.562;18.414;2023-03-23T08:11:31;17.08;;;6.93;;
68192;SDS011;55012;47.562;18.414;2023-03-23T08:13:58;19.85;;;7.82;;
68192;SDS011;55012;47.562;18.414;2023-03-23T08:16:23;29.23;;;7.97;;
68192;SDS011;55012;47.562;18.414;2023-03-23T08:18:49;27.02;;;8.25;;
68192;SDS011;55012;47.562;18.414;2023-03-23T08:21:15;19.42;;;7.10;;
68192;SDS011;55012;47.562;18.414;2023-03-23T08:23:40;22.15;;;7.63;;
68192;SDS011;55012;47.562;18.414;2023-03-23T08:26:06;15.68;;;6.63;;
68192;SDS011;55012;47.562;18.414;2023-03-23T08:28:35;19.67;;;6.40;;
68192;SDS011;55012;47.562;18.414;2023-03-23T08:31:06;20.55;;;7.10;;
68192;SDS011;55012;47.562;18.414;2023-03-23T08:33:36;21.30;;;6.90;;
68192;SDS011;55012;47.562;18.414;2023-03-23T08:36:03;17.58;;;7.32;;
68192;SDS011;55012;47.562;18.414;2023-03-23T08:38:28;21.50;;;6.38;;
68192;SDS011;55012;47.562;18.414;2023-03-23T08:41:01;14.38;;;6.15;;
68192;SDS011;55012;47.562;18.414;2023-03-23T08:43:29;13.60;;;5.97;;
68192;SDS011;55012;47.562;18.414;2023-03-23T08:45:57;15.77;;;5.35;;
68192;SDS011;55012;47.562;18.414;2023-03-23T08:48:22;12.32;;;5.20;;
68192;SDS011;55012;47.562;18.414;2023-03-23T08:50:49;13.85;;;5.57;;
68192;SDS011;55012;47.562;18.414;2023-03-23T08:53:15;10.55;;;5.47;;
68192;SDS011;55012;47.562;18.414;2023-03-23T08:55:40;10.60;;;5.25;;
68192;SDS011;55012;47.562;18.414;2023-03-23T08:58:06;20.35;;;9.35;;
68192;SDS011;55012;47.562;18.414;2023-03-23T09:00:31;9.30;;;6.00;;
68192;SDS011;55012;47.562;18.414;2023-03-23T09:02:57;9.02;;;5.53;;
68192;SDS011;55012;47.562;18.414;2023-03-23T09:05:25;9.40;;;5.28;;
68192;SDS011;55012;47.562;18.414;2023-03-23T09:07:52;9.57;;;5.78;;
68192;SDS011;55012;47.562;18.414;2023-03-23T09:10:19;5.88;;;3.42;;
68192;SDS011;55012;47.562;18.414;2023-03-23T09:12:46;6.80;;;3.05;;
68192;SDS011;55012;47.562;18.414;2023-03-23T09:15:14;5.53;;;3.45;;
68192;SDS011;55012;47.562;18.414;2023-03-23T09:17:42;5.50;;;3.00;;
68192;SDS011;55012;47.562;18.414;2023-03-23T09:20:13;12.43;;;2.72;;
68192;SDS011;55012;47.562;18.414;2023-03-23T09:22:41;5.68;;;2.67;;
68192;SDS011;55012;47.562;18.414;2023-03-23T09:25:09;4.13;;;2.90;;
68192;SDS011;55012;47.562;18.414;2023-03-23T09:27:37;4.20;;;2.78;;
68192;SDS011;55012;47.562;18.414;2023-03-23T09:30:05;5.35;;;3.00;;
68192;SDS011;55012;47.562;18.414;2023-03-23T09:32:35;4.22;;;2.80;;
68192;SDS011;55012;47.562;18.414;2023-03-23T09:35:02;4.00;;;2.80;;
68192;SDS011;55012;47.562;18.414;2023-03-23T09:37:31;5.85;;;3.00;;
68192;SDS011;55012;47.562;18.414;2023-03-23T09:39:57;6.85;;;4.65;;
68192;SDS011;55012;47.562;18.414;2023-03-23T09:45:05;3.75;;;2.70;;
68192;SDS011;55012;47.562;18.414;2023-03-23T09:47:47;5.82;;;3.00;;
68192;SDS011;55012;47.562;18.414;2023-03-23T09:50:24;14.93;;;7.45;;
68192;SDS011;55012;47.562;18.414;2023-03-23T09:52:58;4.35;;;3.03;;
68192;SDS011;55012;47.562;18.414;2023-03-23T09:55:37;5.75;;;3.15;;
68192;SDS011;55012;47.562;18.414;2023-03-23T10:00:41;7.53;;;3.20;;
68192;SDS011;55012;47.562;18.414;2023-03-23T10:08:19;6.07;;;3.40;;
68192;SDS011;55012;47.562;18.414;2023-03-23T10:16:12;5.43;;;3.53;;
68192;SDS011;55012;47.562;18.414;2023-03-23T10:18:45;6.70;;;4.47;;
68192;SDS011;55012;47.562;18.414;2023-03-23T10:21:19;3.85;;;3.10;;
68192;SDS011;55012;47.562;18.414;2023-03-23T10:23:50;4.55;;;3.35;;
68192;SDS011;55012;47.562;18.414;2023-03-23T10:31:38;4.85;;;3.63;;
68192;SDS011;55012;47.562;18.414;2023-03-23T10:34:19;5.15;;;3.40;;
68192;SDS011;55012;47.562;18.414;2023-03-23T10:39:57;3.78;;;3.15;;
68192;SDS011;55012;47.562;18.414;2023-03-23T10:42:29;5.07;;;3.40;;
68192;SDS011;55012;47.562;18.414;2023-03-23T10:44:58;7.72;;;3.40;;
68192;SDS011;55012;47.562;18.414;2023-03-23T10:47:25;4.15;;;3.28;;
68192;SDS011;55012;47.562;18.414;2023-03-23T10:49:59;5.65;;;3.97;;
68192;SDS011;55012;47.562;18.414;2023-03-23T10:52:33;8.70;;;4.05;;
68192;SDS011;55012;47.562;18.414;2023-03-23T10:55:05;7.50;;;4.40;;
68192;SDS011;55012;47.562;18.414;2023-03-23T10:57:34;7.75;;;4.68;;
68192;SDS011;55012;47.562;18.414;2023-03-23T11:00:04;4.25;;;3.45;;
68192;SDS011;55012;47.562;18.414;2023-03-23T11:02:41;6.38;;;3.95;;
68192;SDS011;55012;47.562;18.414;2023-03-23T11:05:21;5.43;;;3.25;;
68192;SDS011;55012;47.562;18.414;2023-03-23T11:07:53;5.78;;;3.63;;
68192;SDS011;55012;47.562;18.414;2023-03-23T11:10:22;6.30;;;3.83;;
68192;SDS011;55012;47.562;18.414;2023-03-23T11:12:50;8.35;;;3.67;;
68192;SDS011;55012;47.562;18.414;2023-03-23T11:15:25;6.47;;;4.07;;
68192;SDS011;55012;47.562;18.414;2023-03-23T11:18:01;15.73;;;5.22;;
68192;SDS011;55012;47.562;18.414;2023-03-23T11:21:14;9.18;;;4.57;;
68192;SDS011;55012;47.562;18.414;2023-03-23T11:28:19;7.50;;;4.05;;
68192;SDS011;55012;47.562;18.414;2023-03-23T11:30:45;7.45;;;4.13;;
68192;SDS011;55012;47.562;18.414;2023-03-23T11:33:12;7.57;;;4.80;;
68192;SDS011;55012;47.562;18.414;2023-03-23T11:35:42;9.10;;;4.30;;
68192;SDS011;55012;47.562;18.414;2023-03-23T11:38:11;6.07;;;3.92;;
68192;SDS011;55012;47.562;18.414;2023-03-23T11:40:44;6.77;;;4.27;;
68192;SDS011;55012;47.562;18.414;2023-03-23T11:43:14;6.82;;;3.70;;
68192;SDS011;55012;47.562;18.414;2023-03-23T11:45:53;5.53;;;3.30;;
68192;SDS011;55012;47.562;18.414;2023-03-23T11:48:30;5.78;;;3.45;;
68192;SDS011;55012;47.562;18.414;2023-03-23T11:51:17;5.57;;;3.85;;
68192;SDS011;55012;47.562;18.414;2023-03-23T11:54:00;4.78;;;3.42;;
68192;SDS011;55012;47.562;18.414;2023-03-23T11:56:47;5.82;;;3.03;;
68192;SDS011;55012;47.562;18.414;2023-03-23T11:59:17;5.20;;;3.50;;
68192;SDS011;55012;47.562;18.414;2023-03-23T12:10:25;7.78;;;4.30;;
68192;SDS011;55012;47.562;18.414;2023-03-23T12:15:42;4.88;;;3.38;;
68192;SDS011;55012;47.562;18.414;2023-03-23T12:20:48;5.05;;;3.33;;
68192;SDS011;55012;47.562;18.414;2023-03-23T12:25:59;6.43;;;3.85;;
68192;SDS011;55012;47.562;18.414;2023-03-23T12:31:22;5.93;;;3.15;;
68192;SDS011;55012;47.562;18.414;2023-03-23T12:42:06;6.47;;;3.95;;
68192;SDS011;55012;47.562;18.414;2023-03-23T12:47:37;6.43;;;4.20;;
68192;SDS011;55012;47.562;18.414;2023-03-23T12:50:07;5.35;;;3.55;;
68192;SDS011;55012;47.562;18.414;2023-03-23T12:52:48;5.35;;;3.22;;
68192;SDS011;55012;47.562;18.414;2023-03-23T12:55:28;7.05;;;3.90;;
68192;SDS011;55012;47.562;18.414;2023-03-23T12:58:02;5.80;;;3.67;;
68192;SDS011;55012;47.562;18.414;2023-03-23T13:00:46;7.68;;;3.53;;
68192;SDS011;55012;47.562;18.414;2023-03-23T13:03:21;5.10;;;3.53;;
68192;SDS011;55012;47.562;18.414;2023-03-23T13:05:53;5.45;;;3.22;;
68192;SDS011;55012;47.562;18.414;2023-03-23T13:08:27;7.97;;;3.72;;
68192;SDS011;55012;47.562;18.414;2023-03-23T13:10:59;12.80;;;3.40;;
68192;SDS011;55012;47.562;18.414;2023-03-23T13:24:23;8.25;;;3.10;;
68192;SDS011;55012;47.562;18.414;2023-03-23T13:26:51;4.75;;;2.80;;
68192;SDS011;55012;47.562;18.414;2023-03-23T13:29:17;3.95;;;2.83;;
68192;SDS011;55012;47.562;18.414;2023-03-23T13:31:45;6.97;;;3.53;;
68192;SDS011;55012;47.562;18.414;2023-03-23T13:36:52;4.90;;;3.13;;
68192;SDS011;55012;47.562;18.414;2023-03-23T13:42:00;5.10;;;3.20;;
68192;SDS011;55012;47.562;18.414;2023-03-23T13:44:42;5.40;;;3.30;;
68192;SDS011;55012;47.562;18.414;2023-03-23T13:49:56;3.60;;;3.10;;
68192;SDS011;55012;47.562;18.414;2023-03-23T13:58:20;6.13;;;2.80;;
68192;SDS011;55012;47.562;18.414;2023-03-23T14:03:33;5.60;;;2.90;;
68192;SDS011;55012;47.562;18.414;2023-03-23T14:06:05;4.93;;;3.40;;
68192;SDS011;55012;47.562;18.414;2023-03-23T14:08:37;6.20;;;3.50;;
68192;SDS011;55012;47.562;18.414;2023-03-23T14:11:13;4.82;;;3.15;;
68192;SDS011;55012;47.562;18.414;2023-03-23T14:16:17;5.20;;;3.13;;
68192;SDS011;55012;47.562;18.414;2023-03-23T14:18:52;5.88;;;3.13;;
68192;SDS011;55012;47.562;18.414;2023-03-23T14:21:36;4.75;;;2.83;;
68192;SDS011;55012;47.562;18.414;2023-03-23T14:24:11;8.23;;;3.97;;
68192;SDS011;55012;47.562;18.414;2023-03-23T14:26:40;4.07;;;3.03;;
68192;SDS011;55012;47.562;18.414;2023-03-23T14:29:08;3.88;;;3.25;;
68192;SDS011;55012;47.562;18.414;2023-03-23T14:31:36;4.07;;;3.10;;
68192;SDS011;55012;47.562;18.414;2023-03-23T14:34:21;6.97;;;3.20;;
68192;SDS011;55012;47.562;18.414;2023-03-23T14:36:50;4.93;;;2.88;;
68192;SDS011;55012;47.562;18.414;2023-03-23T14:39:25;4.97;;;3.15;;
68192;SDS011;55012;47.562;18.414;2023-03-23T14:41:54;6.50;;;3.70;;
68192;SDS011;55012;47.562;18.414;2023-03-23T14:44:23;3.55;;;2.90;;
68192;SDS011;55012;47.562;18.414;2023-03-23T14:46:52;5.20;;;3.05;;
68192;SDS011;55012;47.562;18.414;2023-03-23T14:49:21;6.85;;;3.50;;
68192;SDS011;55012;47.562;18.414;2023-03-23T14:51:54;4.95;;;3.25;;
68192;SDS011;55012;47.562;18.414;2023-03-23T14:54:24;4.72;;;3.90;;
68192;SDS011;55012;47.562;18.414;2023-03-23T14:56:52;4.85;;;3.63;;
68192;SDS011;55012;47.562;18.414;2023-03-23T14:59:18;7.20;;;4.30;;
68192;SDS011;55012;47.562;18.414;2023-03-23T15:01:45;7.38;;;4.55;;
68192;SDS011;55012;47.562;18.414;2023-03-23T15:04:23;5.90;;;3.47;;
68192;SDS011;55012;47.562;18.414;2023-03-23T15:06:55;9.35;;;4.07;;
68192;SDS011;55012;47.562;18.414;2023-03-23T15:09:25;5.80;;;3.15;;
68192;SDS011;55012;47.562;18.414;2023-03-23T15:11:53;5.05;;;3.40;;
68192;SDS011;55012;47.562;18.414;2023-03-23T15:14:22;4.35;;;3.67;;
68192;SDS011;55012;47.562;18.414;2023-03-23T15:16:54;7.43;;;2.75;;
68192;SDS011;55012;47.562;18.414;2023-03-23T15:19:32;5.57;;;2.70;;
68192;SDS011;55012;47.562;18.414;2023-03-23T15:25:17;4.20;;;3.20;;
68192;SDS011;55012;47.562;18.414;2023-03-23T15:27:55;5.10;;;3.05;;
68192;SDS011;55012;47.562;18.414;2023-03-23T15:30:37;3.78;;;2.70;;
68192;SDS011;55012;47.562;18.414;2023-03-23T15:33:13;4.15;;;2.63;;
68192;SDS011;55012;47.562;18.414;2023-03-23T15:35:49;5.30;;;3.00;;
68192;SDS011;55012;47.562;18.414;2023-03-23T15:38:22;6.68;;;2.70;;
68192;SDS011;55012;47.562;18.414;2023-03-23T15:40:55;6.38;;;3.33;;
68192;SDS011;55012;47.562;18.414;2023-03-23T15:43:27;5.90;;;2.75;;
68192;SDS011;55012;47.562;18.414;2023-03-23T15:48:28;5.13;;;2.97;;
68192;SDS011;55012;47.562;18.414;2023-03-23T15:50:59;5.15;;;2.70;;
68192;SDS011;55012;47.562;18.414;2023-03-23T15:53:34;6.93;;;3.20;;
68192;SDS011;55012;47.562;18.414;2023-03-23T15:56:04;9.07;;;3.05;;
68192;SDS011;55012;47.562;18.414;2023-03-23T15:58:32;7.32;;;3.78;;
68192;SDS011;55012;47.562;18.414;2023-03-23T16:00:59;10.90;;;3.17;;
68192;SDS011;55012;47.562;18.414;2023-03-23T16:03:33;7.50;;;4.35;;
68192;SDS011;55012;47.562;18.414;2023-03-23T16:06:03;10.10;;;4.87;;
68192;SDS011;55012;47.562;18.414;2023-03-23T16:08:28;9.95;;;4.18;;
68192;SDS011;55012;47.562;18.414;2023-03-23T16:10:54;4.45;;;3.95;;
68192;SDS011;55012;47.562;18.414;2023-03-23T16:13:20;4.60;;;2.97;;
68192;SDS011;55012;47.562;18.414;2023-03-23T16:15:46;6.53;;;5.10;;
68192;SDS011;55012;47.562;18.414;2023-03-23T16:18:15;7.50;;;3.60;;
68192;SDS011;55012;47.562;18.414;2023-03-23T16:20:42;5.05;;;4.28;;
68192;SDS011;55012;47.562;18.414;2023-03-23T16:23:07;8.10;;;3.55;;
68192;SDS011;55012;47.562;18.414;2023-03-23T16:25:33;4.30;;;3.30;;
68192;SDS011;55012;47.562;18.414;2023-03-23T16:27:58;5.13;;;3.22;;
68192;SDS011;55012;47.562;18.414;2023-03-23T16:30:25;5.32;;;3.38;;
68192;SDS011;55012;47.562;18.414;2023-03-23T16:32:52;7.38;;;3.03;;
68192;SDS011;55012;47.562;18.414;2023-03-23T16:35:18;6.38;;;3.20;;
68192;SDS011;55012;47.562;18.414;2023-03-23T16:37:48;7.40;;;3.75;;
68192;SDS011;55012;47.562;18.414;2023-03-23T16:40:19;5.72;;;3.22;;
68192;SDS011;55012;47.562;18.414;2023-03-23T16:42:45;8.20;;;3.58;;
68192;SDS011;55012;47.562;18.414;2023-03-23T16:45:12;9.13;;;3.65;;